Time;durP1;ratioP1;P1;durP2;ratioP2;P2;SDS_P1;SDS_P2;PMS_P1;PMS_P2;Temp;Humidity;BMP_temperature;BMP_pressure;BME280_temperature;BME280_humidity;BME280_pressure;Samples;Min_cycle;Max_cycle;Signal;HPM_P1;HPM_P2
2022/10/17 00:00:59;;;;;;;0.40;0.40;;;11.30;99.90;;;;;;6240644;23;20389;-77
2022/10/17 00:03:28;;;;;;;1.50;0.70;;;11.20;99.90;;;;;;6239644;22;20386;-77
2022/10/17 00:05:55;;;;;;;0.40;0.40;;;11.10;99.90;;;;;;6240412;23;20413;-78
2022/10/17 00:08:24;;;;;;;0.50;0.50;;;11.10;99.90;;;;;;6240141;23;20389;-78
2022/10/17 00:11:03;;;;;;;0.47;0.47;;;11.00;99.90;;;;;;6238773;23;20394;-78
2022/10/17 00:13:31;;;;;;;0.40;0.40;;;11.00;99.90;;;;;;6238505;23;20398;-78
2022/10/17 00:15:59;;;;;;;0.50;0.50;;;10.90;99.90;;;;;;6250685;22;20386;-78
2022/10/17 00:18:28;;;;;;;0.40;0.40;;;10.90;99.90;;;;;;6240375;22;20390;-78
2022/10/17 00:20:55;;;;;;;0.30;0.30;;;10.90;99.90;;;;;;6239966;23;20432;-78
2022/10/17 00:23:29;;;;;;;0.60;0.60;;;10.90;99.90;;;;;;6239672;23;20393;-78
2022/10/17 00:26:05;;;;;;;0.55;0.55;;;10.90;99.90;;;;;;6240459;22;20830;-78
2022/10/17 00:28:34;;;;;;;1.98;0.68;;;11.00;99.90;;;;;;6240315;23;20393;-78
2022/10/17 00:31:04;;;;;;;0.32;0.32;;;11.10;99.90;;;;;;6240312;22;20397;-78
2022/10/17 00:33:34;;;;;;;0.40;0.40;;;11.00;99.90;;;;;;6239610;22;20396;-78
2022/10/17 00:36:03;;;;;;;0.30;0.30;;;11.00;99.90;;;;;;6238669;23;20808;-78
2022/10/17 00:38:29;;;;;;;0.43;0.43;;;11.10;99.90;;;;;;6238473;23;20438;-78
2022/10/17 00:40:56;;;;;;;0.40;0.40;;;11.20;99.90;;;;;;6236123;23;20398;-78
2022/10/17 00:43:23;;;;;;;0.30;0.30;;;11.10;99.90;;;;;;6249357;22;20444;-78
2022/10/17 00:45:50;;;;;;;0.33;0.33;;;11.20;99.90;;;;;;6238748;23;20436;-78
2022/10/17 00:48:23;;;;;;;0.60;0.40;;;11.10;99.90;;;;;;6242027;23;20386;-78
2022/10/17 00:50:50;;;;;;;0.43;0.43;;;11.10;99.90;;;;;;6241913;22;20409;-78
2022/10/17 00:53:18;;;;;;;0.45;0.45;;;11.10;99.90;;;;;;6240001;23;20393;-78
2022/10/17 00:55:50;;;;;;;0.30;0.30;;;11.00;99.90;;;;;;6251915;22;20389;-78
2022/10/17 00:58:20;;;;;;;0.50;0.50;;;11.00;99.90;;;;;;6240171;23;20740;-78
2022/10/17 01:00:47;;;;;;;1.10;0.70;;;10.90;99.90;;;;;;6241904;22;20448;-78
2022/10/17 01:03:16;;;;;;;0.30;0.30;;;10.90;99.90;;;;;;6240890;23;20397;-78
2022/10/17 01:05:43;;;;;;;0.30;0.30;;;10.80;99.90;;;;;;6241911;23;20389;-78
2022/10/17 01:08:11;;;;;;;0.60;0.40;;;10.90;99.90;;;;;;6250587;23;20721;-78
2022/10/17 01:10:52;;;;;;;0.45;0.45;;;10.90;99.90;;;;;;6241922;22;20444;-78
2022/10/17 01:13:26;;;;;;;0.45;0.45;;;10.90;99.90;;;;;;6241488;23;20382;-78
2022/10/17 01:15:59;;;;;;;0.40;0.40;;;10.90;99.90;;;;;;6241868;23;20420;-78
2022/10/17 01:19:02;;;;;;;0.60;0.60;;;10.90;99.90;;;;;;6239764;23;20935;-78
2022/10/17 01:21:57;;;;;;;0.30;0.30;;;10.80;99.90;;;;;;6252019;23;20397;-78
2022/10/17 01:24:47;;;;;;;0.32;0.32;;;10.80;99.90;;;;;;6240701;22;20790;-78
2022/10/17 01:27:25;;;;;;;0.43;0.43;;;10.90;99.90;;;;;;6242090;22;20385;-78
2022/10/17 01:29:58;;;;;;;0.30;0.30;;;10.90;99.90;;;;;;6241838;22;20385;-78
2022/10/17 01:32:37;;;;;;;0.45;0.45;;;10.80;99.90;;;;;;6241565;23;20960;-78
2022/10/17 01:35:19;;;;;;;0.30;0.30;;;10.80;99.90;;;;;;6239774;23;20723;-78
2022/10/17 01:37:54;;;;;;;0.40;0.40;;;10.80;99.90;;;;;;6241847;22;20477;-78
2022/10/17 01:40:55;;;;;;;0.25;0.25;;;10.70;99.90;;;;;;6241391;23;20452;-78
2022/10/17 01:43:42;;;;;;;0.40;0.40;;;10.70;99.90;;;;;;6118037;23;20397;-78
2022/10/17 01:46:25;;;;;;;0.60;0.60;;;10.60;99.90;;;;;;6118764;23;20393;-78
2022/10/17 01:48:52;;;;;;;0.40;0.40;;;10.50;99.90;;;;;;6118470;23;20397;-78
2022/10/17 01:51:55;;;;;;;0.38;0.38;;;10.50;99.90;;;;;;6118505;23;20483;-78
2022/10/17 01:54:29;;;;;;;0.30;0.30;;;10.40;99.90;;;;;;6105091;23;20884;-78
2022/10/17 01:57:02;;;;;;;0.22;0.22;;;10.40;99.90;;;;;;6118770;23;20404;-78
2022/10/17 01:59:37;;;;;;;0.30;0.30;;;10.30;99.90;;;;;;6117763;23;20401;-78
2022/10/17 02:02:05;;;;;;;0.40;0.40;;;10.30;99.90;;;;;;6118316;23;20404;-78
2022/10/17 02:04:33;;;;;;;0.90;0.50;;;10.20;99.90;;;;;;6117631;23;20400;-78
2022/10/17 02:07:11;;;;;;;0.30;0.30;;;10.10;99.90;;;;;;6118558;23;20540;-78
2022/10/17 02:09:38;;;;;;;0.30;0.30;;;10.10;99.90;;;;;;6128351;23;20396;-78
2022/10/17 02:12:29;;;;;;;0.32;0.32;;;10.00;99.90;;;;;;6118376;23;20392;-78
2022/10/17 02:15:16;;;;;;;0.38;0.38;;;10.10;99.90;;;;;;6117531;23;20948;-78
2022/10/17 02:18:06;;;;;;;6.00;0.40;;;10.10;99.90;;;;;;6118353;23;20404;-78
2022/10/17 02:20:50;;;;;;;0.40;0.40;;;10.20;99.90;;;;;;6228953;23;20393;-78
2022/10/17 02:23:36;;;;;;;0.40;0.40;;;10.10;99.90;;;;;;6240589;22;20544;-78
2022/10/17 02:26:25;;;;;;;0.52;0.40;;;10.20;99.90;;;;;;6241168;23;20396;-78
2022/10/17 02:28:52;;;;;;;0.38;0.38;;;10.20;99.90;;;;;;6241385;22;20413;-78
2022/10/17 02:31:49;;;;;;;0.40;0.40;;;10.20;99.90;;;;;;6241577;23;20388;-78
2022/10/17 02:34:39;;;;;;;1.80;0.40;;;10.20;99.90;;;;;;6238479;23;20394;-78
2022/10/17 02:37:08;;;;;;;0.50;0.50;;;10.20;99.90;;;;;;6241473;22;20390;-78
2022/10/17 02:39:37;;;;;;;0.40;0.40;;;10.20;99.90;;;;;;6250238;23;20389;-78
2022/10/17 02:42:06;;;;;;;0.20;0.20;;;10.20;99.90;;;;;;6238631;23;20390;-78
2022/10/17 02:44:36;;;;;;;0.50;0.50;;;10.20;99.90;;;;;;6240592;22;20564;-78
2022/10/17 02:47:11;;;;;;;0.28;0.28;;;10.20;99.90;;;;;;6241220;22;20520;-78
2022/10/17 02:49:42;;;;;;;0.40;0.40;;;10.20;99.90;;;;;;6240870;23;20386;-78
2022/10/17 02:52:21;;;;;;;0.75;0.40;;;10.20;99.90;;;;;;6240955;22;20459;-78
2022/10/17 02:54:53;;;;;;;0.80;0.55;;;10.20;99.90;;;;;;6240217;22;20452;-78
2022/10/17 02:57:28;;;;;;;0.38;0.38;;;10.20;99.90;;;;;;6251005;22;20579;-78
2022/10/17 02:59:58;;;;;;;0.30;0.30;;;10.20;99.90;;;;;;6249154;23;20841;-78
2022/10/17 03:02:25;;;;;;;0.40;0.40;;;10.20;99.90;;;;;;6239142;23;20390;-78
2022/10/17 03:04:52;;;;;;;0.35;0.35;;;10.20;99.90;;;;;;6240532;22;20680;-78
2022/10/17 03:07:19;;;;;;;0.40;0.40;;;10.20;99.90;;;;;;6240833;22;20386;-78
2022/10/17 03:09:51;;;;;;;0.40;0.40;;;10.20;99.90;;;;;;6240551;22;20401;-78
2022/10/17 03:12:18;;;;;;;0.50;0.50;;;10.30;99.90;;;;;;6240752;23;20396;-78
2022/10/17 03:14:45;;;;;;;0.40;0.40;;;10.30;99.90;;;;;;6240011;23;20413;-78
2022/10/17 03:17:17;;;;;;;0.40;0.40;;;10.30;99.90;;;;;;6238913;23;20390;-78
2022/10/17 03:19:43;;;;;;;0.40;0.40;;;10.30;99.90;;;;;;6250723;23;20393;-78
2022/10/17 03:22:10;;;;;;;2.15;0.40;;;10.30;99.90;;;;;;6241174;23;20443;-78
2022/10/17 03:24:36;;;;;;;0.40;0.40;;;10.20;99.90;;;;;;6240161;23;20452;-78
2022/10/17 03:27:03;;;;;;;0.30;0.30;;;10.20;99.90;;;;;;6238497;23;20416;-78
2022/10/17 03:29:35;;;;;;;0.40;0.40;;;10.20;99.90;;;;;;6239433;23;20440;-78
2022/10/17 03:32:02;;;;;;;0.25;0.25;;;10.10;99.90;;;;;;6240841;23;20401;-78
2022/10/17 03:34:28;;;;;;;0.30;0.30;;;10.10;99.90;;;;;;6239912;22;20389;-78
2022/10/17 03:36:55;;;;;;;0.40;0.40;;;10.00;99.90;;;;;;6240613;23;20394;-78
2022/10/17 03:39:29;;;;;;;0.40;0.40;;;10.00;99.90;;;;;;6249227;23;20753;-78
2022/10/17 03:41:56;;;;;;;0.40;0.40;;;10.00;99.90;;;;;;6238881;23;20773;-78
2022/10/17 03:44:22;;;;;;;0.30;0.30;;;10.00;99.90;;;;;;6239438;23;20447;-78
2022/10/17 03:46:49;;;;;;;0.38;0.38;;;10.00;99.90;;;;;;6238638;23;20393;-78
2022/10/17 03:49:16;;;;;;;0.43;0.43;;;10.00;99.90;;;;;;6238854;23;20390;-78
2022/10/17 03:51:42;;;;;;;0.50;0.30;;;10.10;99.90;;;;;;6250362;23;20393;-78
2022/10/17 03:54:12;;;;;;;0.30;0.30;;;10.10;99.90;;;;;;6239600;23;20386;-78
2022/10/17 03:56:39;;;;;;;0.30;0.30;;;10.10;99.90;;;;;;6240333;23;20400;-78
2022/10/17 03:59:14;;;;;;;0.32;0.32;;;10.10;99.90;;;;;;6238750;23;20416;-78
2022/10/17 04:01:41;;;;;;;0.60;0.60;;;10.10;99.90;;;;;;6240330;22;20389;-78
2022/10/17 04:04:11;;;;;;;0.50;0.50;;;10.10;99.90;;;;;;6239836;23;20397;-78
2022/10/17 04:06:38;;;;;;;0.52;0.52;;;10.20;99.90;;;;;;6240004;23;20390;-78
2022/10/17 04:09:05;;;;;;;0.40;0.40;;;10.20;99.90;;;;;;6238767;23;20451;-78
2022/10/17 04:11:33;;;;;;;0.38;0.38;;;10.20;99.90;;;;;;6240315;22;20397;-78
2022/10/17 04:14:09;;;;;;;0.30;0.30;;;10.20;99.90;;;;;;6239821;22;20757;-78
2022/10/17 04:16:35;;;;;;;0.40;0.40;;;10.20;99.90;;;;;;6238451;23;20477;-78
2022/10/17 04:19:02;;;;;;;0.40;0.40;;;10.20;99.90;;;;;;6239854;23;21078;-78
2022/10/17 04:21:32;;;;;;;0.40;0.40;;;10.10;99.90;;;;;;6240687;23;20389;-78
2022/10/17 04:24:02;;;;;;;0.60;0.47;;;10.10;99.90;;;;;;6239900;23;20385;-78
2022/10/17 04:26:32;;;;;;;0.57;0.57;;;10.00;99.90;;;;;;6240554;23;20439;-78
2022/10/17 04:28:59;;;;;;;0.40;0.40;;;10.00;99.90;;;;;;6241911;23;20389;-78
2022/10/17 04:31:28;;;;;;;0.40;0.40;;;10.00;99.90;;;;;;6241848;23;20393;-78
2022/10/17 04:33:55;;;;;;;0.40;0.40;;;10.00;99.90;;;;;;6241718;23;20417;-78
2022/10/17 04:36:22;;;;;;;0.50;0.50;;;10.00;99.90;;;;;;6251826;23;20408;-78
2022/10/17 04:38:51;;;;;;;0.43;0.43;;;10.00;99.90;;;;;;6240440;23;20393;-78
2022/10/17 04:41:18;;;;;;;0.40;0.40;;;10.10;99.90;;;;;;6241499;23;20390;-78
2022/10/17 04:43:45;;;;;;;0.40;0.40;;;10.00;99.90;;;;;;6239837;23;20901;-78
2022/10/17 04:46:17;;;;;;;0.40;0.40;;;10.00;99.90;;;;;;6240520;23;20389;-78
2022/10/17 04:48:46;;;;;;;0.67;0.60;;;10.00;99.90;;;;;;6250800;23;20460;-78
2022/10/17 04:51:16;;;;;;;0.40;0.40;;;9.90;99.90;;;;;;6241446;23;20390;-78
2022/10/17 04:53:46;;;;;;;0.30;0.30;;;9.90;99.90;;;;;;6241621;22;20457;-78
2022/10/17 04:56:19;;;;;;;0.30;0.30;;;9.90;99.90;;;;;;6242219;22;20446;-78
2022/10/17 04:58:46;;;;;;;0.40;0.40;;;9.90;99.90;;;;;;6241867;22;20393;-78
2022/10/17 05:01:16;;;;;;;0.40;0.40;;;10.00;99.90;;;;;;6241381;22;20460;-78
2022/10/17 05:03:44;;;;;;;0.50;0.50;;;10.00;99.90;;;;;;6241430;22;20389;-78
2022/10/17 05:06:19;;;;;;;0.30;0.30;;;10.00;99.90;;;;;;6241905;22;20397;-78
2022/10/17 05:08:47;;;;;;;0.50;0.50;;;10.00;99.90;;;;;;6241742;22;20397;-78
2022/10/17 05:11:22;;;;;;;2.00;0.40;;;10.00;99.90;;;;;;6241343;22;20386;-78
2022/10/17 05:13:52;;;;;;;0.28;0.28;;;9.90;99.90;;;;;;6239685;23;20449;-78
2022/10/17 05:16:20;;;;;;;0.40;0.40;;;9.90;99.90;;;;;;6241845;23;20400;-78
2022/10/17 05:18:52;;;;;;;0.55;0.45;;;9.80;99.90;;;;;;6241835;22;20390;-78
2022/10/17 05:21:20;;;;;;;0.70;0.70;;;9.80;99.90;;;;;;6240162;23;20398;-78
2022/10/17 05:23:47;;;;;;;0.40;0.40;;;9.80;99.90;;;;;;6250923;23;20468;-78
2022/10/17 05:26:14;;;;;;;0.70;0.68;;;9.80;99.90;;;;;;6241755;23;20386;-78
2022/10/17 05:28:43;;;;;;;0.68;0.68;;;9.80;99.90;;;;;;6240017;23;20913;-78
2022/10/17 05:31:10;;;;;;;0.70;0.70;;;9.80;99.90;;;;;;6241621;23;20417;-77
2022/10/17 05:33:38;;;;;;;0.95;0.85;;;9.90;99.90;;;;;;6250406;22;20440;-78
2022/10/17 05:36:05;;;;;;;0.90;0.90;;;10.00;99.90;;;;;;6251660;22;20439;-78
2022/10/17 05:38:32;;;;;;;0.87;0.87;;;9.90;99.90;;;;;;6239782;23;20394;-78
2022/10/17 05:41:01;;;;;;;1.00;1.00;;;9.90;99.90;;;;;;6241645;23;20448;-78
2022/10/17 05:43:29;;;;;;;1.23;0.85;;;9.80;99.90;;;;;;6240591;22;20765;-78
2022/10/17 05:45:56;;;;;;;1.20;0.80;;;9.80;99.90;;;;;;6241150;22;20390;-78
2022/10/17 05:48:23;;;;;;;0.85;0.85;;;9.70;99.90;;;;;;6241628;22;20741;-78
2022/10/17 05:50:58;;;;;;;1.10;0.80;;;9.70;99.90;;;;;;6246380;23;20416;-78
2022/10/17 05:53:24;;;;;;;0.60;0.60;;;9.80;99.90;;;;;;6240776;22;20401;-78
2022/10/17 05:55:56;;;;;;;1.05;0.60;;;9.70;99.90;;;;;;6240722;22;20730;-78
2022/10/17 05:58:23;;;;;;;0.43;0.43;;;9.70;99.90;;;;;;6240223;23;20443;-78
2022/10/17 06:01:11;;;;;;;0.60;0.35;;;9.70;99.90;;;;;;6240865;22;20421;-78
2022/10/17 06:03:38;;;;;;;0.30;0.30;;;9.70;99.90;;;;;;6238988;23;20477;-78
2022/10/17 06:06:11;;;;;;;0.40;0.40;;;9.70;99.90;;;;;;6240147;23;20440;-78
2022/10/17 06:08:38;;;;;;;0.80;0.60;;;9.70;99.90;;;;;;6241742;22;20393;-78
2022/10/17 06:11:05;;;;;;;0.47;0.47;;;9.80;99.90;;;;;;6241460;23;20393;-78
2022/10/17 06:13:36;;;;;;;0.40;0.40;;;9.90;99.90;;;;;;6239137;23;20664;-78
2022/10/17 06:16:06;;;;;;;0.63;0.63;;;10.00;99.90;;;;;;6239902;23;20452;-77
2022/10/17 06:18:33;;;;;;;1.40;0.70;;;10.10;99.90;;;;;;6239941;23;20692;-78
2022/10/17 06:21:06;;;;;;;0.70;0.70;;;10.10;99.90;;;;;;6239734;23;20397;-78
2022/10/17 06:23:33;;;;;;;0.23;0.23;;;10.20;99.90;;;;;;6241076;22;20397;-78
2022/10/17 06:26:02;;;;;;;0.40;0.40;;;10.20;99.90;;;;;;6240763;23;20471;-78
2022/10/17 06:28:29;;;;;;;1.00;0.40;;;10.30;99.90;;;;;;6249315;23;20878;-78
2022/10/17 06:30:55;;;;;;;1.17;1.08;;;10.30;99.90;;;;;;6241356;22;20388;-78
2022/10/17 06:33:24;;;;;;;0.63;0.63;;;10.30;99.90;;;;;;6240439;23;20390;-78
2022/10/17 06:35:53;;;;;;;1.92;0.82;;;10.50;99.90;;;;;;6239720;23;20443;-78
2022/10/17 06:38:20;;;;;;;4.17;0.80;;;10.50;99.90;;;;;;6239496;23;20444;-78
2022/10/17 06:40:46;;;;;;;0.30;0.30;;;10.80;99.90;;;;;;6240419;23;20479;-78
2022/10/17 06:43:13;;;;;;;0.50;0.50;;;11.20;99.90;;;;;;6249020;23;20699;-78
2022/10/17 06:45:45;;;;;;;0.60;0.60;;;11.50;99.90;;;;;;6239498;23;20422;-78
2022/10/17 06:48:12;;;;;;;0.40;0.40;;;11.90;99.90;;;;;;6241059;22;20392;-78
2022/10/17 06:50:39;;;;;;;0.52;0.52;;;12.10;99.90;;;;;;6239438;23;20773;-79
2022/10/17 06:53:06;;;;;;;0.57;0.57;;;12.20;99.90;;;;;;6240514;22;20389;-79
2022/10/17 06:55:33;;;;;;;0.50;0.50;;;12.10;99.90;;;;;;6241129;23;20390;-79
2022/10/17 06:57:59;;;;;;;0.40;0.40;;;12.30;99.90;;;;;;6241216;23;20393;-79
2022/10/17 07:00:26;;;;;;;0.38;0.38;;;12.80;99.90;;;;;;6240846;23;20397;-78
2022/10/17 07:02:52;;;;;;;0.40;0.40;;;13.00;99.90;;;;;;6240128;23;20401;-79
2022/10/17 07:05:19;;;;;;;0.65;0.65;;;13.10;99.90;;;;;;6240716;23;20389;-79
2022/10/17 07:07:46;;;;;;;0.38;0.38;;;13.40;99.90;;;;;;6240374;22;20443;-79
2022/10/17 07:10:17;;;;;;;0.40;0.40;;;13.70;99.90;;;;;;6241085;23;20389;-79
2022/10/17 07:12:44;;;;;;;0.30;0.30;;;14.20;99.90;;;;;;6240682;22;20443;-79
2022/10/17 07:15:11;;;;;;;0.38;0.38;;;14.60;99.90;;;;;;6239014;23;20397;-79
2022/10/17 07:17:38;;;;;;;0.50;0.40;;;14.90;99.90;;;;;;6240468;22;20964;-79
2022/10/17 07:20:08;;;;;;;0.50;0.50;;;15.10;99.90;;;;;;6250797;23;20439;-79
2022/10/17 07:22:34;;;;;;;0.70;0.70;;;15.30;99.90;;;;;;6240544;22;20389;-80
2022/10/17 07:25:28;;;;;;;0.80;0.80;;;15.70;99.90;;;;;;6239785;23;20401;-81
2022/10/17 07:27:54;;;;;;;0.93;0.93;;;16.00;99.90;;;;;;6235062;22;20397;-81
2022/10/17 07:30:22;;;;;;;1.00;1.00;;;16.10;99.90;;;;;;6240516;22;20433;-81
2022/10/17 07:32:54;;;;;;;0.88;0.88;;;16.30;99.90;;;;;;6240370;23;20484;-81
2022/10/17 07:35:21;;;;;;;0.77;0.77;;;16.50;99.90;;;;;;6240631;23;20448;-81
2022/10/17 07:37:47;;;;;;;1.00;0.80;;;16.80;99.90;;;;;;6240669;23;20389;-80
2022/10/17 07:40:17;;;;;;;0.90;0.90;;;16.60;99.90;;;;;;6240946;23;20397;-81
2022/10/17 07:42:44;;;;;;;0.85;0.85;;;16.60;99.90;;;;;;6240374;23;20493;-81
2022/10/17 07:45:14;;;;;;;1.35;1.00;;;16.50;97.30;;;;;;6238345;23;20386;-81
2022/10/17 07:47:41;;;;;;;0.95;0.95;;;16.40;95.90;;;;;;6240081;22;20722;-81
2022/10/17 07:50:08;;;;;;;0.90;0.90;;;16.90;99.90;;;;;;6249078;23;20382;-81
2022/10/17 07:52:38;;;;;;;1.08;1.08;;;17.10;99.90;;;;;;6249792;23;20435;-81
2022/10/17 07:55:08;;;;;;;0.95;0.80;;;17.70;99.90;;;;;;6237647;23;20382;-81
2022/10/17 07:57:35;;;;;;;0.90;0.90;;;18.10;99.90;;;;;;6239910;23;20391;-82
2022/10/17 08:00:11;;;;;;;1.08;1.02;;;18.10;1.00;;;;;;6239141;23;20457;-81
2022/10/17 08:02:38;;;;;;;0.80;0.80;;;18.00;29.80;;;;;;6239120;23;20903;-81
2022/10/17 08:05:10;;;;;;;0.90;0.90;;;17.90;96.80;;;;;;6239542;23;20417;-81
2022/10/17 08:07:37;;;;;;;0.95;0.95;;;17.50;99.90;;;;;;6250489;23;20691;-81
2022/10/17 08:10:04;;;;;;;1.58;0.90;;;17.30;99.90;;;;;;6248704;23;20386;-81
2022/10/17 08:12:37;;;;;;;1.17;1.08;;;17.40;1.00;;;;;;6240075;22;20385;-81
2022/10/17 08:15:12;;;;;;;0.70;0.70;;;17.50;1.00;;;;;;6248107;23;20397;-80
2022/10/17 08:17:39;;;;;;;1.30;1.20;;;17.40;99.90;;;;;;6239793;23;20393;-81
2022/10/17 08:20:09;;;;;;;1.03;0.93;;;17.50;99.90;;;;;;6240100;23;20440;-81
2022/10/17 08:22:36;;;;;;;1.00;1.00;;;17.40;99.90;;;;;;6240191;22;20443;-81
2022/10/17 08:25:03;;;;;;;0.80;0.80;;;17.50;99.90;;;;;;6237829;23;20385;-80
2022/10/17 08:27:32;;;;;;;0.88;0.88;;;17.70;99.90;;;;;;6238476;23;20396;-81
2022/10/17 08:30:02;;;;;;;1.33;1.23;;;17.80;14.20;;;;;;6240302;22;20389;-81
2022/10/17 08:32:29;;;;;;;1.00;1.00;;;18.00;1.00;;;;;;6250506;22;20393;-81
2022/10/17 08:34:56;;;;;;;0.75;0.75;;;17.90;1.00;;;;;;6239575;23;20389;-80
2022/10/17 08:37:23;;;;;;;0.85;0.85;;;18.00;1.00;;;;;;6239647;23;20385;-80
2022/10/17 08:39:53;;;;;;;0.73;0.73;;;18.00;1.00;;;;;;6239600;23;20385;-79
2022/10/17 08:42:22;;;;;;;1.70;1.05;;;18.00;1.00;;;;;;6240494;23;20389;-79
2022/10/17 08:45:04;;;;;;;0.80;0.80;;;17.70;1.00;;;;;;6239270;23;20448;-80
2022/10/17 08:48:01;;;;;;;0.90;0.90;;;17.60;1.00;;;;;;6240075;23;20394;-79
2022/10/17 08:50:30;;;;;;;1.00;1.00;;;17.30;1.00;;;;;;6116896;23;20967;-79
2022/10/17 08:53:20;;;;;;;1.00;1.00;;;17.40;1.00;;;;;;6116706;23;20959;-79
2022/10/17 08:55:51;;;;;;;0.90;0.90;;;17.60;1.00;;;;;;6116931;23;20580;-79
2022/10/17 08:58:27;;;;;;;1.20;1.17;;;17.60;1.00;;;;;;6116915;23;20808;-80
2022/10/17 09:01:22;;;;;;;1.37;1.37;;;17.60;1.00;;;;;;6117035;23;20408;-79
2022/10/17 09:04:26;;;;;;;1.17;1.08;;;17.50;1.00;;;;;;6118599;23;20397;-79
2022/10/17 09:07:23;;;;;;;1.40;1.00;;;17.60;1.00;;;;;;6117178;23;20407;-79
2022/10/17 09:09:53;;;;;;;1.15;1.15;;;17.40;1.00;;;;;;6118083;23;20464;-79
2022/10/17 09:12:44;;;;;;;0.80;0.80;;;17.60;1.00;;;;;;6119002;23;20455;-79
2022/10/17 09:15:41;;;;;;;1.58;0.93;;;17.80;1.00;;;;;;6106662;23;20440;-81
2022/10/17 09:18:21;;;;;;;0.90;0.90;;;17.90;1.00;;;;;;6118989;23;20396;-80
2022/10/17 09:21:09;;;;;;;0.70;0.70;;;18.10;1.00;;;;;;6118418;23;20467;-81
2022/10/17 09:23:47;;;;;;;3.28;1.02;;;18.50;1.00;;;;;;6117934;23;20432;-80
2022/10/17 09:26:14;;;;;;;0.98;0.98;;;18.70;1.00;;;;;;6144108;23;20394;-79
2022/10/17 09:28:42;;;;;;;0.75;0.75;;;18.80;1.00;;;;;;6241483;22;20390;-79
2022/10/17 09:31:25;;;;;;;1.10;1.00;;;18.90;1.00;;;;;;6241661;22;20390;-79
2022/10/17 09:33:59;;;;;;;1.03;0.83;;;18.80;99.90;;;;;;6251267;22;20397;-79
2022/10/17 09:36:31;;;;;;;0.80;0.80;;;19.00;1.00;;;;;;6250259;23;20447;-79
2022/10/17 09:39:00;;;;;;;1.17;1.00;;;19.10;99.90;;;;;;6249622;23;20753;-78
2022/10/17 09:41:40;;;;;;;0.70;0.70;;;19.50;99.90;;;;;;6239917;23;20382;-78
2022/10/17 09:44:14;;;;;;;1.00;1.00;;;19.70;99.90;;;;;;6239322;22;20436;-79
2022/10/17 09:46:54;;;;;;;0.85;0.85;;;20.10;99.90;;;;;;6241140;23;20390;-79
2022/10/17 09:49:33;;;;;;;0.90;0.90;;;20.40;99.90;;;;;;6240567;22;20451;-79
2022/10/17 09:52:04;;;;;;;0.95;0.95;;;20.40;99.90;;;;;;6241212;22;20601;-79
2022/10/17 09:54:45;;;;;;;0.93;0.93;;;20.10;99.90;;;;;;6240356;22;20394;-79
2022/10/17 09:57:17;;;;;;;1.00;0.90;;;20.10;99.90;;;;;;6239361;23;20401;-79
2022/10/17 09:59:56;;;;;;;0.70;0.70;;;20.40;99.90;;;;;;6241302;22;20398;-79
2022/10/17 10:02:30;;;;;;;0.88;0.88;;;20.80;99.90;;;;;;6240907;22;20392;-79
2022/10/17 10:05:04;;;;;;;1.00;1.00;;;21.40;99.90;;;;;;6238340;23;20413;-79
2022/10/17 10:07:36;;;;;;;0.80;0.80;;;21.70;99.90;;;;;;6239566;23;20870;-79
2022/10/17 10:10:22;;;;;;;0.82;0.82;;;21.60;99.90;;;;;;6239723;23;20386;-79
2022/10/17 10:13:14;;;;;;;1.20;0.77;;;21.40;99.90;;;;;;6241015;22;20396;-79
2022/10/17 10:15:46;;;;;;;1.00;1.00;;;21.10;99.90;;;;;;6240853;23;20440;-79
2022/10/17 10:18:35;;;;;;;0.68;0.68;;;21.00;99.90;;;;;;6241106;22;20509;-79
2022/10/17 10:21:26;;;;;;;1.10;1.10;;;21.00;99.90;;;;;;6239211;23;20393;-79
2022/10/17 10:24:07;;;;;;;0.70;0.70;;;21.40;99.90;;;;;;6239087;23;20406;-79
2022/10/17 10:26:39;;;;;;;1.10;0.80;;;21.90;99.90;;;;;;6240940;23;20436;-79
2022/10/17 10:29:29;;;;;;;0.80;0.80;;;21.90;99.90;;;;;;6239424;23;20866;-79
2022/10/17 10:32:25;;;;;;;0.80;0.80;;;22.30;99.90;;;;;;6241054;22;20390;-79
2022/10/17 10:34:56;;;;;;;0.70;0.70;;;22.70;99.90;;;;;;6250006;22;20381;-79
2022/10/17 10:37:32;;;;;;;0.73;0.73;;;22.70;99.90;;;;;;6239318;23;20421;-79
2022/10/17 10:40:06;;;;;;;1.20;0.88;;;23.10;99.90;;;;;;6239549;23;20713;-79
2022/10/17 10:42:40;;;;;;;0.80;0.80;;;23.20;99.90;;;;;;6251037;23;20420;-79
2022/10/17 10:45:22;;;;;;;0.63;0.63;;;23.50;99.90;;;;;;6240184;22;20397;-79
2022/10/17 10:48:55;;;;;;;1.10;1.05;;;23.20;99.90;;;;;;6241078;22;20389;-79
2022/10/17 10:51:33;;;;;;;1.10;1.00;;;23.80;99.90;;;;;;6118209;23;20913;-79
2022/10/17 10:54:08;;;;;;;0.60;0.60;;;24.30;99.90;;;;;;6236887;22;20432;-79
2022/10/17 10:56:44;;;;;;;0.60;0.60;;;24.30;99.90;;;;;;6240374;23;20390;-78
2022/10/17 10:59:44;;;;;;;0.70;0.60;;;24.30;99.90;;;;;;6239214;23;20394;-79
2022/10/17 11:02:33;;;;;;;0.95;0.80;;;24.90;99.90;;;;;;6250526;23;20861;-79
2022/10/17 11:05:34;;;;;;;0.80;0.80;;;24.80;99.90;;;;;;6239905;22;20421;-79
2022/10/17 11:08:22;;;;;;;0.80;0.80;;;24.60;99.90;;;;;;6240748;22;20390;-79
2022/10/17 11:11:00;;;;;;;0.73;0.73;;;24.40;99.90;;;;;;6239338;23;20390;-79
2022/10/17 11:13:35;;;;;;;0.77;0.77;;;24.30;99.90;;;;;;6240224;22;20467;-79
2022/10/17 11:16:23;;;;;;;0.70;0.70;;;23.90;99.90;;;;;;6239205;23;20454;-79
2022/10/17 11:19:30;;;;;;;0.70;0.70;;;24.10;99.90;;;;;;6240437;22;20389;-79
2022/10/17 11:22:14;;;;;;;0.57;0.57;;;24.10;99.90;;;;;;6235642;23;20393;-78
2022/10/17 11:25:02;;;;;;;0.70;0.70;;;24.80;99.90;;;;;;6238539;23;20390;-78
2022/10/17 11:27:30;;;;;;;0.80;0.80;;;24.60;99.90;;;;;;6240819;23;20412;-78
2022/10/17 11:29:57;;;;;;;0.70;0.70;;;24.10;99.90;;;;;;6240802;22;20390;-79
2022/10/17 11:32:51;;;;;;;0.85;0.85;;;24.10;99.90;;;;;;6240230;22;20443;-78
2022/10/17 11:35:29;;;;;;;0.77;0.77;;;24.10;99.90;;;;;;6239257;22;20934;-79
2022/10/17 11:38:35;;;;;;;0.70;0.70;;;24.50;99.90;;;;;;6241093;22;20405;-79
2022/10/17 11:41:03;;;;;;;0.80;0.80;;;24.80;99.90;;;;;;6240275;22;20426;-79
2022/10/17 11:43:52;;;;;;;0.57;0.57;;;24.90;99.90;;;;;;6238746;23;20448;-78
2022/10/17 11:46:24;;;;;;;0.65;0.65;;;24.60;99.90;;;;;;6240471;22;20389;-78
2022/10/17 11:49:17;;;;;;;0.60;0.60;;;24.60;99.90;;;;;;6238804;23;20385;-78
2022/10/17 11:52:04;;;;;;;0.88;0.88;;;24.80;99.90;;;;;;6240585;22;20392;-78
2022/10/17 11:54:56;;;;;;;0.70;0.70;;;24.60;99.90;;;;;;6239637;23;20865;-78
2022/10/17 11:58:10;;;;;;;0.80;0.80;;;24.70;99.90;;;;;;6238665;23;20394;-78
2022/10/17 12:00:57;;;;;;;0.60;0.60;;;24.80;99.90;;;;;;6117212;23;20455;-78
2022/10/17 12:03:42;;;;;;;0.70;0.70;;;25.10;99.90;;;;;;6231860;22;20402;-78
2022/10/17 12:06:22;;;;;;;0.60;0.60;;;24.90;99.90;;;;;;6239777;23;20397;-78
2022/10/17 12:09:05;;;;;;;0.70;0.70;;;25.40;99.90;;;;;;6240348;22;20393;-78
2022/10/17 12:11:57;;;;;;;0.65;0.65;;;25.30;99.90;;;;;;6240502;23;20397;-78
2022/10/17 12:14:37;;;;;;;0.70;0.70;;;24.80;99.90;;;;;;6230046;23;20397;-78
2022/10/17 12:17:19;;;;;;;0.73;0.73;;;24.80;99.90;;;;;;6240298;22;20413;-79
2022/10/17 12:19:46;;;;;;;0.80;0.80;;;25.10;99.90;;;;;;6238949;23;20397;-78
2022/10/17 12:22:45;;;;;;;0.60;0.60;;;25.50;99.90;;;;;;6249978;23;20765;-78
2022/10/17 12:25:26;;;;;;;0.77;0.77;;;25.80;99.90;;;;;;6234124;22;20889;-78
2022/10/17 12:28:11;;;;;;;3.23;0.57;;;25.80;99.90;;;;;;6248839;23;20440;-79
2022/10/17 12:31:11;;;;;;;0.70;0.70;;;26.10;99.90;;;;;;6239850;22;20440;-78
2022/10/17 12:33:47;;;;;;;0.80;0.80;;;25.50;99.90;;;;;;6238142;23;20389;-79
2022/10/17 12:36:17;;;;;;;0.45;0.45;;;25.30;99.90;;;;;;6240090;23;20726;-78
2022/10/17 12:38:45;;;;;;;0.90;0.90;;;25.50;99.90;;;;;;6240365;23;20459;-78
2022/10/17 12:41:36;;;;;;;0.60;0.60;;;25.40;99.90;;;;;;6239706;22;20900;-78
2022/10/17 12:44:12;;;;;;;0.50;0.50;;;25.40;99.90;;;;;;6237665;23;20439;-78
2022/10/17 12:47:02;;;;;;;0.68;0.68;;;25.30;99.90;;;;;;6246047;23;20492;-78
2022/10/17 12:49:44;;;;;;;0.70;0.70;;;25.00;99.90;;;;;;6269614;23;20928;-78
2022/10/17 12:52:33;;;;;;;0.98;0.88;;;25.30;99.90;;;;;;6257872;22;20436;-78
2022/10/17 12:55:04;;;;;;;0.60;0.60;;;25.80;99.90;;;;;;6243332;23;20391;-78
2022/10/17 12:58:00;;;;;;;0.68;0.68;;;26.20;99.90;;;;;;6242240;22;20449;-78
2022/10/17 13:00:55;;;;;;;0.70;0.70;;;26.40;99.90;;;;;;6241596;22;20487;-78
2022/10/17 13:03:44;;;;;;;0.63;0.63;;;26.70;99.90;;;;;;6240219;22;20440;-78
2022/10/17 13:06:20;;;;;;;0.70;0.60;;;26.50;99.90;;;;;;6241290;23;20394;-78
2022/10/17 13:08:54;;;;;;;0.60;0.60;;;26.50;99.90;;;;;;6241796;22;20421;-79
2022/10/17 13:11:31;;;;;;;0.60;0.60;;;26.50;99.90;;;;;;6241648;22;20885;-79
2022/10/17 13:14:01;;;;;;;0.60;0.60;;;26.90;99.90;;;;;;6240936;22;20393;-78
2022/10/17 13:16:37;;;;;;;0.60;0.60;;;27.00;99.90;;;;;;6240345;23;20463;-79
2022/10/17 13:19:14;;;;;;;0.77;0.77;;;27.50;99.90;;;;;;6239220;23;20425;-79
2022/10/17 13:22:02;;;;;;;0.80;0.80;;;28.00;99.90;;;;;;6240015;23;20390;-79
2022/10/17 13:24:39;;;;;;;0.60;0.60;;;28.10;99.90;;;;;;6241059;22;20396;-79
2022/10/17 13:27:21;;;;;;;0.67;0.67;;;28.00;99.90;;;;;;6240004;23;20774;-79